Time;durP1;ratioP1;P1;durP2;ratioP2;P2;SDS_P1;SDS_P2;PMS_P1;PMS_P2;Temp;Humidity;BMP_temperature;BMP_pressure;BME280_temperature;BME280_humidity;BME280_pressure;Samples;Min_cycle;Max_cycle;Signal;HPM_P1;HPM_P2
2022/04/26 03:37:47;;;;;;;11.70;8.47;;;8.30;99.90;;;6.65;89.73;99817.38;10292172;28;96497;-85
2022/04/26 03:42:50;;;;;;;12.57;8.97;;;8.30;99.90;;;6.63;89.58;99816.72;10315035;28;98691;-85
2022/04/26 03:47:53;;;;;;;13.33;8.80;;;8.30;99.90;;;6.61;89.68;99823.16;10321396;28;96562;-85
2022/04/26 03:52:56;;;;;;;12.73;8.40;;;8.30;99.90;;;6.57;89.58;99827.88;10389773;28;99304;-85
2022/04/26 03:57:59;;;;;;;13.07;8.80;;;8.20;99.90;;;6.53;89.74;99837.09;10307743;28;96431;-83
2022/04/26 04:03:02;;;;;;;14.53;9.33;;;8.20;99.90;;;6.53;89.67;99850.28;10333035;28;96596;-82
2022/04/26 04:08:06;;;;;;;14.33;8.70;;;8.20;99.90;;;6.50;89.84;99850.59;10339453;28;96476;-83
2022/04/26 04:13:10;;;;;;;13.63;8.77;;;8.10;99.90;;;6.52;89.71;99856.53;10323858;28;96582;-83
2022/04/26 04:23:40;;;;;;;12.40;8.57;;;8.20;99.90;;;6.75;90.39;99851.66;10313644;28;97456;-83
2022/04/26 04:28:43;;;;;;;11.50;7.53;;;8.30;99.90;;;6.89;90.16;99858.19;10297548;28;96514;-83
2022/04/26 04:33:46;;;;;;;13.03;8.50;;;8.40;99.90;;;7.00;89.88;99859.78;10327236;28;98230;-83
2022/04/26 04:38:49;;;;;;;12.67;7.97;;;8.50;99.90;;;7.10;89.46;99868.44;10323803;28;97990;-83
2022/04/26 04:43:52;;;;;;;11.00;6.53;;;8.50;99.90;;;7.25;89.28;99877.47;10316974;28;97803;-82
2022/04/26 04:48:54;;;;;;;9.13;6.67;;;8.70;99.90;;;7.44;88.84;99872.00;10330350;28;97717;-83
2022/04/26 04:53:58;;;;;;;9.30;6.40;;;8.90;99.90;;;7.65;88.34;99884.00;10328619;28;96559;-83
2022/04/26 04:59:01;;;;;;;9.17;6.37;;;9.00;99.90;;;7.82;87.36;99883.13;10352670;28;96554;-82
2022/04/26 05:04:04;;;;;;;8.20;5.43;;;9.30;99.90;;;7.99;86.72;99895.44;10313142;28;96743;-82
2022/04/26 05:09:07;;;;;;;9.40;6.47;;;9.40;99.90;;;8.17;86.17;99898.00;10296393;28;96575;-83
2022/04/26 05:14:10;;;;;;;8.87;6.13;;;9.60;99.90;;;8.36;85.45;99899.59;10315983;28;98579;-83
2022/04/26 05:19:13;;;;;;;7.13;4.80;;;9.80;99.90;;;8.58;84.63;99898.16;10297036;28;96477;-82
2022/04/26 05:29:37;;;;;;;6.15;4.45;;;10.10;99.90;;;8.96;81.88;99914.44;10294334;28;96733;-82
2022/04/26 05:34:40;;;;;;;6.93;4.67;;;10.30;99.90;;;9.13;81.21;99907.34;10311592;28;96637;-82
2022/04/26 05:39:43;;;;;;;7.40;5.00;;;10.50;99.90;;;9.30;80.63;99911.63;10331045;28;96558;-81
2022/04/26 05:44:46;;;;;;;7.90;5.70;;;10.70;99.90;;;9.46;79.93;99910.78;10302359;28;96946;-81
2022/04/26 05:49:49;;;;;;;7.50;5.13;;;10.80;99.90;;;9.62;79.55;99910.75;10295221;28;96672;-82
2022/04/26 05:54:52;;;;;;;9.00;4.67;;;11.00;99.90;;;9.79;79.07;99912.38;10303240;28;96599;-82
2022/04/26 05:59:55;;;;;;;9.43;4.40;;;11.20;99.90;;;9.98;78.18;99918.31;10337505;28;96584;-82
2022/04/26 06:04:58;;;;;;;4.70;3.60;;;11.30;99.90;;;10.20;77.59;99912.25;10327904;28;96551;-84
2022/04/26 06:10:03;;;;;;;3.87;3.17;;;11.60;99.90;;;10.42;75.26;99919.47;10301315;28;97183;-83
2022/04/26 06:15:07;;;;;;;4.30;2.97;;;11.70;99.90;;;10.67;74.22;99903.41;10327231;28;97311;-83
2022/04/26 06:20:11;;;;;;;3.17;2.40;;;12.00;99.90;;;10.92;72.92;99910.22;10332319;28;96357;-82
2022/04/26 06:25:14;;;;;;;3.37;2.03;;;12.20;99.90;;;11.14;70.70;99907.72;10326841;28;96518;-83
2022/04/26 06:30:17;;;;;;;3.13;1.83;;;12.40;99.90;;;11.35;68.95;99907.06;10292524;28;96518;-84
2022/04/26 06:35:20;;;;;;;3.83;1.80;;;12.60;99.90;;;11.60;67.56;99911.16;10293483;28;96391;-83
2022/04/26 06:40:23;;;;;;;3.07;1.93;;;12.90;99.90;;;11.79;65.53;99905.28;10294524;28;96367;-84
2022/04/26 06:45:26;;;;;;;2.60;1.70;;;13.10;99.90;;;11.94;64.44;99900.00;10300474;28;97472;-83
2022/04/26 06:50:29;;;;;;;2.53;1.30;;;13.20;98.40;;;12.17;64.04;99896.38;10333482;28;96636;-83
2022/04/26 06:55:34;;;;;;;2.37;1.57;;;13.40;98.60;;;12.35;62.01;99904.81;10318245;28;96521;-84
2022/04/26 07:00:37;;;;;;;1.53;1.23;;;13.60;95.70;;;12.53;62.22;99905.28;10292865;28;96502;-83
2022/04/26 07:05:41;;;;;;;1.50;1.10;;;13.80;95.70;;;12.79;61.56;99904.72;10291905;28;97319;-83
2022/04/26 07:10:44;;;;;;;1.60;0.93;;;14.10;94.90;;;13.00;60.53;99906.56;10307297;28;96545;-83
2022/04/26 07:15:48;;;;;;;3.17;1.20;;;14.30;94.70;;;13.29;59.64;99904.81;10329901;28;97064;-84
2022/04/26 07:20:52;;;;;;;1.77;1.08;;;14.50;93.80;;;13.46;57.52;99911.50;10333092;28;96397;-83
2022/04/26 07:25:55;;;;;;;2.03;1.20;;;14.70;91.70;;;13.68;57.35;99908.81;10308163;28;98954;-83
2022/04/26 07:30:58;;;;;;;4.47;1.20;;;14.90;90.50;;;13.93;55.14;99905.47;10292055;28;96407;-84
2022/04/26 07:36:03;;;;;;;1.25;0.90;;;15.20;87.20;;;14.21;54.63;99907.25;10297416;28;97322;-83
2022/04/26 07:41:07;;;;;;;1.02;0.65;;;15.40;85.90;;;14.45;52.11;99917.44;10295192;28;96607;-83
2022/04/26 07:46:14;;;;;;;1.08;0.70;;;15.70;78.50;;;14.69;51.46;99915.28;10292015;28;96520;-83
2022/04/26 07:51:18;;;;;;;1.88;0.77;;;15.90;76.80;;;14.84;50.07;99931.16;10306173;28;96438;-83
2022/04/26 07:56:21;;;;;;;0.98;0.80;;;16.10;75.20;;;15.06;49.90;99923.81;10336740;28;96406;-84
2022/04/26 08:01:25;;;;;;;0.73;0.55;;;16.30;74.80;;;15.18;47.61;99927.53;10334365;28;96655;-83
2022/04/26 08:06:28;;;;;;;0.70;0.60;;;16.50;71.50;;;15.27;47.16;99927.13;10328537;28;97023;-83
2022/04/26 08:11:31;;;;;;;1.10;0.60;;;16.60;69.00;;;15.40;47.30;99936.19;10332171;28;96974;-83
2022/04/26 08:16:35;;;;;;;0.85;0.57;;;16.70;69.50;;;15.53;45.98;99930.81;10299732;28;96532;-83
2022/04/26 08:21:39;;;;;;;1.00;0.60;;;16.90;68.30;;;15.79;45.77;99930.03;10293567;28;96989;-84
2022/04/26 08:32:05;;;;;;;1.13;0.70;;;17.30;67.00;;;16.18;46.45;99934.47;10315734;28;96563;-84
2022/04/26 08:37:09;;;;;;;1.20;0.73;;;17.40;66.60;;;16.26;45.06;99939.63;10340740;28;96489;-84
2022/04/26 08:42:12;;;;;;;1.25;0.90;;;17.60;64.90;;;16.21;44.62;99939.41;10317528;28;97532;-84
2022/04/26 08:52:48;;;;;;;1.70;0.90;;;17.50;64.20;;;16.47;44.94;99932.31;10296067;28;96540;-83
2022/04/26 08:57:52;;;;;;;3.15;1.27;;;17.70;63.90;;;16.69;45.18;99928.28;10297717;28;97331;-84
2022/04/26 09:03:07;;;;;;;3.10;0.90;;;17.90;63.50;;;16.85;44.00;99930.53;10296523;28;96745;-84
2022/04/26 09:08:28;;;;;;;2.95;1.10;;;18.00;62.40;;;17.15;44.02;99932.56;10311011;28;96682;-83
2022/04/26 09:13:40;;;;;;;;;;;18.20;61.60;;;17.17;43.47;99927.84;10302175;28;96689;-83
2022/04/26 09:19:41;;;;;;;4.55;1.50;;;18.30;61.40;;;17.16;44.09;99930.75;10311959;28;96525;-83
2022/04/26 09:31:39;;;;;;;1.13;0.73;;;18.40;59.70;;;17.52;41.72;99930.88;10338717;28;96683;-84
2022/04/26 09:36:50;;;;;;;4.13;1.13;;;18.70;59.40;;;17.58;42.26;99937.22;10320278;28;96443;-84
2022/04/26 09:41:53;;;;;;;1.40;1.00;;;18.80;59.50;;;17.63;41.64;99929.31;10320583;28;97516;-84
2022/04/26 09:46:56;;;;;;;1.35;0.90;;;18.90;58.70;;;17.72;41.06;99937.97;10332836;28;97063;-84
2022/04/26 09:51:59;;;;;;;1.42;1.00;;;19.00;57.80;;;17.79;40.87;99931.47;10298355;28;97525;-84
2022/04/26 09:57:06;;;;;;;1.40;0.80;;;19.10;57.20;;;18.11;39.99;99928.66;10295956;28;96660;-84
2022/04/26 10:02:32;;;;;;;1.25;0.70;;;19.40;57.00;;;18.87;39.78;99916.56;10326988;28;97270;-84
2022/04/26 10:07:47;;;;;;;1.60;0.80;;;19.90;57.40;;;19.38;37.99;99907.94;10335562;28;96944;-86
2022/04/26 10:13:51;;;;;;;1.23;0.90;;;20.30;55.10;;;19.78;37.92;99905.38;10300841;28;96540;-85
2022/04/26 10:18:31;;;;;;;1.58;0.93;;;20.60;55.50;;;19.96;35.45;99895.53;10327326;28;97593;-84
2022/04/26 10:23:56;;;;;;;1.67;0.70;;;20.90;52.90;;;19.89;34.96;99898.34;10331277;28;98940;-84
2022/04/26 10:29:02;;;;;;;2.60;0.88;;;20.90;49.90;;;19.86;35.30;99895.31;10295340;28;96600;-84
2022/04/26 10:34:23;;;;;;;1.55;1.05;;;21.00;50.90;;;19.62;36.25;99899.91;10290685;28;96864;-82
2022/04/26 10:39:45;;;;;;;1.02;0.93;;;20.80;51.30;;;19.43;34.95;99899.97;10296487;28;96437;-84
2022/04/26 10:44:49;;;;;;;1.95;0.88;;;20.70;49.90;;;19.23;35.12;99902.97;10312323;28;96449;-84
2022/04/26 10:49:53;;;;;;;1.27;1.02;;;20.70;50.00;;;18.98;35.33;99894.25;10308500;28;96500;-85
2022/04/26 10:55:04;;;;;;;3.58;0.85;;;20.40;49.60;;;18.92;35.71;99887.91;10302726;28;96554;-84
2022/04/26 11:00:26;;;;;;;1.77;1.02;;;20.20;50.00;;;19.08;34.82;99889.16;10325493;28;96655;-84
2022/04/26 11:05:32;;;;;;;1.73;1.20;;;20.30;49.30;;;19.21;35.36;99896.19;10333727;28;97373;-83
2022/04/26 11:16:13;;;;;;;1.92;1.30;;;20.40;49.40;;;19.23;33.54;99891.38;10293161;28;97047;-84
2022/04/26 11:21:16;;;;;;;1.70;1.17;;;20.40;47.90;;;19.28;33.90;99896.91;10295819;28;97975;-84
2022/04/26 11:31:41;;;;;;;2.88;1.65;;;20.60;49.90;;;19.97;35.53;99889.06;10387121;28;96505;-84
2022/04/26 11:36:46;;;;;;;1.85;1.45;;;20.80;50.60;;;20.70;35.74;99877.63;10381380;28;96414;-84
2022/04/26 11:41:49;;;;;;;2.17;1.65;;;21.30;51.40;;;20.76;34.68;99878.56;10358817;28;96625;-83
2022/04/26 11:46:59;;;;;;;3.03;1.48;;;21.60;50.00;;;20.95;35.54;99871.88;10315073;28;96491;-84
2022/04/26 11:52:02;;;;;;;3.47;1.35;;;21.70;50.60;;;20.90;33.68;99873.66;10332293;28;96600;-83
2022/04/26 11:57:05;;;;;;;4.30;1.85;;;21.80;49.00;;;20.91;34.36;99873.41;10359039;28;97473;-84
2022/04/26 12:02:08;;;;;;;3.08;1.77;;;21.80;49.50;;;20.93;35.01;99865.06;10388918;28;97067;-82
2022/04/26 12:07:12;;;;;;;3.97;1.90;;;21.80;50.00;;;20.74;34.49;99867.97;10367813;28;96560;-83
2022/04/26 12:12:15;;;;;;;2.08;1.48;;;21.70;49.60;;;20.66;35.70;99872.97;10340483;28;96516;-83
2022/04/26 12:17:22;;;;;;;2.38;1.83;;;21.60;50.30;;;20.65;35.04;99868.63;10370099;28;97319;-83
2022/04/26 12:22:37;;;;;;;3.00;1.98;;;21.50;50.30;;;20.62;35.81;99863.69;10362734;28;96880;-84
2022/04/26 12:27:40;;;;;;;2.65;1.70;;;21.50;50.10;;;20.52;35.99;99864.34;10351600;28;96521;-83
2022/04/26 12:32:43;;;;;;;3.60;2.13;;;21.50;50.20;;;20.58;36.05;99855.28;10354292;28;96546;-83
2022/04/26 12:37:47;;;;;;;2.10;1.80;;;21.60;50.60;;;20.68;35.71;99857.31;10320823;28;96498;-83
2022/04/26 12:42:54;;;;;;;2.40;1.65;;;21.70;50.20;;;20.99;35.62;99846.00;10365920;28;96422;-83
2022/04/26 12:53:28;;;;;;;2.67;1.77;;;22.20;49.70;;;20.93;36.12;99838.88;10391930;28;96451;-80
2022/04/26 12:58:37;;;;;;;3.10;1.70;;;22.70;49.60;;;20.98;35.62;99825.44;10322414;28;96657;-83
2022/04/26 13:03:42;;;;;;;3.03;2.00;;;23.10;48.50;;;21.24;34.95;99832.09;10337382;28;96488;-83
2022/04/26 13:08:48;;;;;;;2.22;1.48;;;23.50;48.00;;;21.79;35.13;99825.06;10375053;28;96541;-83
2022/04/26 13:13:51;;;;;;;2.42;1.63;;;23.90;47.70;;;22.01;34.11;99823.19;10337504;28;97111;-83
2022/04/26 13:18:54;;;;;;;3.10;1.50;;;24.40;46.80;;;22.63;31.95;99820.09;10378072;28;96396;-83
2022/04/26 13:23:57;;;;;;;2.03;1.30;;;25.10;45.60;;;23.26;32.21;99814.13;10373359;28;96496;-84
2022/04/26 13:29:02;;;;;;;1.85;1.50;;;25.50;45.60;;;24.07;32.09;99806.47;10372106;28;96895;-85
2022/04/26 13:34:05;;;;;;;1.90;1.30;;;26.20;45.20;;;24.49;30.88;99810.97;10358457;28;96718;-84
2022/04/26 13:39:32;;;;;;;2.53;1.52;;;26.70;44.50;;;24.97;28.61;99800.66;10357800;28;96474;-84
2022/04/26 13:44:35;;;;;;;3.55;1.92;;;27.10;42.10;;;24.65;29.06;99812.63;10377697;28;96533;-86
2022/04/26 13:49:39;;;;;;;2.30;1.63;;;26.80;42.20;;;24.32;29.96;99810.34;10377565;28;96449;-84
2022/04/26 13:54:43;;;;;;;1.52;1.30;;;26.30;42.80;;;24.32;29.46;99807.63;10369075;28;97356;-86
2022/04/26 13:59:46;;;;;;;2.10;1.33;;;26.20;42.40;;;24.48;29.12;99803.91;10341394;28;98281;-85
2022/04/26 14:04:49;;;;;;;2.03;1.30;;;26.30;42.40;;;23.71;29.91;99803.59;10399918;28;96433;-86
2022/04/26 14:09:53;;;;;;;1.70;1.40;;;25.70;42.30;;;22.60;31.16;99808.94;10373353;28;96695;-85
2022/04/26 14:25:39;;;;;;;2.20;1.17;;;23.20;46.10;;;21.69;34.00;99814.09;10338304;28;96757;-86
2022/04/26 14:30:42;;;;;;;1.75;1.27;;;23.20;46.40;;;21.53;33.58;99805.81;10382763;28;96636;-86
2022/04/26 14:35:45;;;;;;;1.70;1.50;;;23.20;46.70;;;21.40;35.00;99811.53;10397954;28;98489;-85
2022/04/26 14:40:49;;;;;;;3.42;1.67;;;22.80;46.90;;;21.76;34.73;99815.53;10358956;28;97544;-85
2022/04/26 14:45:55;;;;;;;3.33;1.48;;;23.10;47.30;;;22.33;34.09;99808.97;10340388;28;96767;-85
2022/04/26 14:50:58;;;;;;;5.32;1.30;;;23.50;46.70;;;23.04;32.82;99801.53;10367040;28;96814;-85
2022/04/26 14:56:01;;;;;;;2.00;1.30;;;24.20;46.20;;;23.44;31.22;99792.03;10350903;28;98472;-85
2022/04/26 15:01:03;;;;;;;1.48;1.10;;;24.60;45.00;;;23.97;30.81;99796.38;10385520;28;97852;-86
2022/04/26 15:06:06;;;;;;;3.40;1.33;;;25.10;44.80;;;23.90;29.80;99792.28;10347939;28;96638;-85
2022/04/26 15:11:10;;;;;;;2.67;1.55;;;25.20;43.80;;;23.75;30.67;99788.44;10364022;28;97404;-86
2022/04/26 15:21:35;;;;;;;2.20;1.35;;;25.00;43.60;;;22.98;31.12;99794.44;10384968;28;96541;-85
2022/04/26 15:26:40;;;;;;;2.90;1.80;;;24.50;43.90;;;22.12;32.22;99797.06;10387245;28;97267;-84
2022/04/26 15:31:43;;;;;;;1.73;1.33;;;23.70;44.50;;;21.52;33.72;99808.72;10392750;28;96653;-85
2022/04/26 15:36:46;;;;;;;2.40;1.48;;;23.20;45.60;;;20.98;35.11;99795.72;10367399;28;96855;-86
2022/04/26 15:41:50;;;;;;;1.90;1.30;;;22.60;46.70;;;20.52;35.99;99797.69;10332105;28;96637;-85
2022/04/26 15:46:56;;;;;;;1.77;1.30;;;22.20;47.60;;;20.16;37.77;99800.75;10358618;28;97292;-86
2022/04/26 15:51:59;;;;;;;2.10;1.38;;;21.80;48.80;;;19.66;37.24;99806.72;10337296;28;96690;-85
2022/04/26 15:57:03;;;;;;;1.77;1.30;;;21.30;49.00;;;19.32;38.25;99805.66;10361020;28;96484;-85
2022/04/26 16:02:07;;;;;;;2.58;1.48;;;20.90;49.90;;;19.03;39.54;99812.78;10368555;28;96507;-85
2022/04/26 16:07:11;;;;;;;2.92;1.48;;;20.60;50.80;;;18.76;40.41;99810.50;10357578;28;97267;-85
2022/04/26 16:22:59;;;;;;;2.53;1.58;;;19.80;52.90;;;18.07;42.43;99807.31;10371733;28;97399;-85
2022/04/26 16:28:03;;;;;;;2.25;1.40;;;19.50;53.70;;;17.92;42.86;99807.69;10388609;28;96460;-84
2022/04/26 16:33:06;;;;;;;2.65;1.60;;;19.40;54.20;;;17.78;43.22;99805.38;10346514;28;96434;-85
2022/04/26 16:38:09;;;;;;;2.80;1.42;;;19.20;54.50;;;17.66;43.55;99802.59;10373830;28;96496;-85
2022/04/26 16:43:16;;;;;;;3.17;1.80;;;19.10;55.40;;;17.50;44.01;99805.84;10346860;28;96721;-85
2022/04/26 16:48:19;;;;;;;2.17;1.48;;;18.90;55.30;;;17.37;44.66;99814.88;10373570;28;96417;-85
2022/04/26 16:53:22;;;;;;;5.68;1.95;;;18.80;55.70;;;17.26;45.45;99816.41;10347589;28;97455;-86
2022/04/26 16:58:25;;;;;;;3.22;1.70;;;18.70;56.60;;;17.17;46.24;99817.75;10385172;28;96666;-86
2022/04/26 17:03:28;;;;;;;4.80;1.85;;;18.60;57.20;;;17.06;46.60;99816.59;10384339;28;96946;-84
2022/04/26 17:08:31;;;;;;;5.63;1.58;;;18.50;57.60;;;16.96;47.24;99827.00;10359960;28;96758;-84
2022/04/26 17:13:35;;;;;;;2.95;2.05;;;18.40;58.10;;;16.89;47.51;99828.09;10345260;28;96544;-84
2022/04/26 17:18:41;;;;;;;3.25;1.63;;;18.30;58.40;;;16.81;47.95;99831.88;10384988;28;98286;-84
2022/04/26 17:23:44;;;;;;;4.00;1.50;;;18.20;58.70;;;16.68;48.11;99835.44;10413163;28;96584;-84
2022/04/26 17:28:47;;;;;;;2.47;1.77;;;18.10;59.10;;;16.53;48.27;99837.59;10386122;28;96842;-84
2022/04/26 17:33:52;;;;;;;2.70;1.50;;;18.00;59.40;;;16.39;48.71;99839.53;10362921;28;96562;-84
2022/04/26 17:38:55;;;;;;;2.95;1.80;;;17.90;59.70;;;16.27;48.72;99842.06;10386951;28;96600;-84
2022/04/26 17:43:59;;;;;;;3.28;1.50;;;17.70;59.70;;;16.16;49.02;99850.75;10365964;28;97303;-84
2022/04/26 17:49:03;;;;;;;2.40;1.55;;;17.60;60.00;;;16.04;49.05;99857.81;10373647;28;96681;-84
2022/04/26 17:59:27;;;;;;;3.97;1.98;;;17.40;60.70;;;15.82;50.09;99867.16;10352963;28;97498;-84
2022/04/26 18:04:30;;;;;;;3.08;2.00;;;17.30;61.00;;;15.73;51.00;99864.72;10349576;28;96958;-84
2022/04/26 18:09:34;;;;;;;3.15;2.25;;;17.20;61.70;;;15.65;51.58;99864.94;10359539;28;98682;-84
2022/04/26 18:14:37;;;;;;;5.05;2.00;;;17.10;62.20;;;15.56;51.56;99865.31;10361582;28;96592;-84
2022/04/26 18:19:40;;;;;;;2.50;1.65;;;17.10;62.40;;;15.46;51.67;99868.41;10368932;28;96603;-83
2022/04/26 18:24:43;;;;;;;4.78;1.95;;;17.00;62.70;;;15.39;51.68;99881.00;10387739;28;96533;-84
2022/04/26 18:29:46;;;;;;;2.70;2.00;;;16.90;62.70;;;15.32;51.72;99883.69;10341363;28;97362;-85
2022/04/26 18:34:50;;;;;;;4.32;2.10;;;16.80;62.70;;;15.24;52.15;99895.41;10340569;28;98231;-85
2022/04/26 18:39:54;;;;;;;2.75;2.00;;;16.80;63.10;;;15.17;52.56;99899.09;10336037;28;97480;-84
2022/04/26 18:44:57;;;;;;;2.97;2.15;;;16.70;63.40;;;15.07;52.78;99899.53;10369026;28;97588;-84
2022/04/26 18:50:00;;;;;;;2.70;1.80;;;16.60;63.90;;;14.99;53.24;99908.56;10357145;28;96530;-84
2022/04/26 18:55:03;;;;;;;3.50;2.00;;;16.50;64.20;;;14.95;53.45;99910.00;10332756;28;97300;-85
2022/04/26 19:00:09;;;;;;;3.65;1.80;;;16.40;64.60;;;14.89;53.60;99907.31;10363207;28;96682;-84
2022/04/26 19:05:12;;;;;;;5.18;2.10;;;16.40;64.70;;;14.85;53.70;99906.06;10341997;28;96705;-85
2022/04/26 19:15:38;;;;;;;4.63;2.63;;;16.30;65.50;;;14.72;54.88;99907.69;10349482;28;98423;-85
2022/04/26 19:20:41;;;;;;;4.18;2.45;;;16.30;66.00;;;14.68;55.45;99917.13;10322697;28;98172;-85
2022/04/26 19:25:44;;;;;;;3.83;2.40;;;16.20;66.60;;;14.59;55.01;99918.34;10354747;28;96532;-84
2022/04/26 19:30:47;;;;;;;6.93;3.05;;;16.10;66.50;;;14.54;55.83;99911.94;10338781;28;97378;-84
2022/04/26 19:35:51;;;;;;;4.65;3.42;;;16.10;67.10;;;14.49;56.60;99912.53;10365868;28;96484;-84
2022/04/26 19:40:54;;;;;;;5.55;2.70;;;16.00;67.80;;;14.44;56.55;99914.97;10368274;28;96779;-84
2022/04/26 19:45:58;;;;;;;3.95;2.22;;;16.00;68.10;;;14.41;56.98;99918.03;10358812;28;97546;-84
2022/04/26 19:56:25;;;;;;;3.93;2.40;;;15.90;69.50;;;14.18;57.88;99927.19;10351769;28;97726;-84
2022/04/26 20:01:28;;;;;;;4.88;3.10;;;15.80;70.20;;;14.13;57.67;99934.97;10366134;28;96666;-84
2022/04/26 20:06:51;;;;;;;3.53;2.67;;;15.70;70.00;;;14.10;57.55;99930.03;10385645;28;96821;-84
2022/04/26 20:11:54;;;;;;;3.53;2.50;;;15.60;70.00;;;14.05;57.95;99929.78;10361099;28;96402;-84
2022/04/26 20:16:57;;;;;;;3.77;2.50;;;15.60;70.60;;;13.99;58.75;99925.22;10377607;28;96601;-85
2022/04/26 20:22:00;;;;;;;4.93;3.00;;;15.50;71.30;;;13.90;58.78;99934.41;10366402;28;97160;-85
2022/04/26 20:32:28;;;;;;;4.03;2.72;;;15.40;72.10;;;13.75;59.99;99931.03;10403908;28;96728;-84
2022/04/26 20:37:31;;;;;;;4.82;3.03;;;15.30;73.60;;;13.66;60.57;99936.50;10402007;28;96722;-85
2022/04/26 20:42:34;;;;;;;5.00;2.70;;;15.20;73.80;;;13.59;60.17;99946.31;10360337;28;97805;-84
2022/04/26 20:47:38;;;;;;;6.53;3.07;;;15.10;74.10;;;13.54;59.75;99943.41;10392805;28;98415;-85
2022/04/26 20:52:41;;;;;;;4.37;3.00;;;15.10;73.90;;;13.53;59.81;99948.94;10371552;28;96613;-85
2022/04/26 20:57:46;;;;;;;4.70;3.23;;;15.10;74.10;;;13.50;59.93;99949.34;10363675;28;96781;-85
2022/04/26 21:02:49;;;;;;;5.47;3.50;;;15.10;74.50;;;13.46;60.59;99954.22;10361143;28;98823;-84
2022/04/26 21:07:52;;;;;;;3.97;2.73;;;15.00;75.00;;;13.42;60.14;99960.94;10349014;28;96549;-85
2022/04/26 21:18:18;;;;;;;18.90;8.10;;;15.00;76.00;;;13.37;61.66;99971.38;10410027;28;96588;-85
2022/04/26 21:23:21;;;;;;;9.87;4.03;;;14.90;76.70;;;13.35;61.29;99962.75;10367507;28;96538;-85
2022/04/26 21:28:24;;;;;;;5.80;3.70;;;14.90;77.00;;;13.31;61.34;99959.66;10341821;28;97804;-85
2022/04/26 21:33:27;;;;;;;4.80;3.43;;;14.90;77.20;;;13.28;61.93;99956.53;10368526;28;96609;-85
2022/04/26 21:38:32;;;;;;;6.87;4.23;;;14.80;78.00;;;13.27;62.13;99954.88;10351015;28;96393;-84
2022/04/26 21:43:35;;;;;;;10.33;5.03;;;14.80;78.40;;;13.23;62.69;99953.59;10336496;28;96567;-84
2022/04/26 21:48:40;;;;;;;12.57;6.13;;;14.80;79.40;;;13.17;63.42;99963.16;10378681;28;96990;-84
2022/04/26 21:53:43;;;;;;;8.30;5.00;;;14.70;80.00;;;13.16;63.64;99963.34;10354310;28;96734;-84
2022/04/26 21:58:46;;;;;;;8.37;5.03;;;14.80;80.90;;;13.09;63.76;99966.78;10339544;28;96907;-84
2022/04/26 22:03:50;;;;;;;10.60;5.23;;;14.70;81.90;;;13.02;64.08;99957.91;10354699;28;96575;-85
2022/04/26 22:08:52;;;;;;;6.20;4.13;;;14.60;83.40;;;12.96;64.92;99971.16;10320648;28;96614;-85
2022/04/26 22:13:55;;;;;;;6.70;3.47;;;14.50;84.80;;;12.93;64.88;99980.34;10347898;28;96625;-84
2022/04/26 22:18:58;;;;;;;4.60;3.03;;;14.40;85.60;;;12.91;64.81;99981.56;10367289;28;96811;-84
2022/04/26 22:24:01;;;;;;;4.80;3.27;;;14.50;86.20;;;12.91;64.85;99984.22;10360806;28;96536;-85
2022/04/26 22:29:04;;;;;;;5.57;3.43;;;14.40;86.60;;;12.86;65.35;99984.78;10351783;28;96707;-85
2022/04/26 22:34:07;;;;;;;4.80;3.40;;;14.40;88.40;;;12.81;65.70;99982.69;10370024;28;96801;-84
2022/04/26 22:39:10;;;;;;;5.00;3.27;;;14.30;89.70;;;12.82;65.66;99991.50;10390598;28;96871;-84
2022/04/26 22:44:13;;;;;;;4.33;2.80;;;14.30;90.10;;;12.80;65.30;99993.53;10381388;28;96838;-84
2022/04/26 22:49:16;;;;;;;5.40;2.90;;;14.30;90.20;;;12.76;64.69;99989.59;10375648;28;96707;-85
2022/04/26 22:54:19;;;;;;;5.27;2.40;;;14.30;90.20;;;12.74;64.70;99992.44;10388584;28;96512;-85
2022/04/26 22:59:22;;;;;;;4.03;2.80;;;14.30;90.20;;;12.71;64.22;99990.13;10379735;28;96955;-85
2022/04/26 23:04:25;;;;;;;4.73;2.53;;;14.20;90.10;;;12.73;64.36;99989.97;10365522;28;96473;-85
2022/04/26 23:09:28;;;;;;;4.07;2.43;;;14.20;90.10;;;12.74;64.16;99989.78;10345864;28;96689;-85
2022/04/26 23:14:31;;;;;;;5.17;2.90;;;14.20;90.20;;;12.75;64.50;99993.25;10341666;28;96618;-85
2022/04/26 23:19:35;;;;;;;4.10;2.90;;;14.20;90.20;;;12.77;65.12;99999.22;10360309;28;98348;-86
2022/04/26 23:24:37;;;;;;;5.80;3.07;;;14.30;90.70;;;12.78;65.09;100000.91;10336917;28;96624;-85
2022/04/26 23:29:41;;;;;;;5.70;2.67;;;14.30;90.90;;;12.81;65.70;100008.53;10348704;28;96554;-86
2022/04/26 23:40:06;;;;;;;4.23;2.80;;;14.30;91.80;;;12.80;66.12;100012.19;10332890;28;96950;-86
2022/04/26 23:45:09;;;;;;;4.67;3.33;;;14.30;92.00;;;12.76;66.52;100005.56;10368791;28;97334;-86
2022/04/26 23:55:36;;;;;;;4.57;3.37;;;14.20;92.80;;;12.66;66.51;100002.41;10327267;28;97108;-86
